Terminal Aerodrome Forecast
Issued by NWS

Home | Current Version | Previous Version | Text Only | Print | Product List | Glossary On
Versions: 1 2 3 4 5 6 7 8 9 10 11 12 13 14 15 16 17 18 19 20 21 22 23 24 25 26 27 28 29
000
FTUS45 KBYZ 221735
TAFLVM
TAF
KLVM 221735Z 2218/2318 22038G47KT P6SM VCSH FEW090 SCT110
     FM221900 25026G38KT P6SM VCSH BKN070
     FM230100 25032G44KT P6SM BKN100
     FM230700 26026G36KT P6SM BKN070=

USA.gov is the U.S. government's official web portal to all federal, state and local government web resources and services.